createdAt,value
2018-08-09T00:04:35.940Z,99396.61
2018-08-09T00:10:40.801Z,99394.86
2018-08-09T00:16:45.577Z,99396.17
2018-08-09T00:22:50.238Z,99391.24
2018-08-09T00:28:54.992Z,99398.34
2018-08-09T00:34:59.631Z,99388.77
2018-08-09T00:41:04.648Z,99383.00
2018-08-09T00:47:09.826Z,99378.55
2018-08-09T00:53:14.554Z,99383.67
2018-08-09T00:59:19.580Z,99377.83
2018-08-09T01:05:24.305Z,99377.56
2018-08-09T01:11:29.288Z,99375.08
2018-08-09T01:17:34.481Z,99373.72
2018-08-09T01:23:39.158Z,99383.86
2018-08-09T01:29:43.870Z,99382.27
2018-08-09T01:35:48.847Z,99385.61
2018-08-09T01:42:10.468Z,99385.33
2018-08-09T01:48:15.243Z,99381.66
2018-08-09T01:54:19.903Z,99381.08
2018-08-09T02:00:24.599Z,99384.19
2018-08-09T02:06:29.596Z,99383.25
2018-08-09T02:12:34.303Z,99379.28
2018-08-09T02:18:39.531Z,99382.36
2018-08-09T02:24:44.266Z,99392.14
2018-08-09T02:30:48.992Z,99394.70
2018-08-09T02:36:53.767Z,99393.93
2018-08-09T02:42:58.543Z,99385.53
2018-08-09T02:49:03.310Z,99378.23
2018-08-09T02:55:08.450Z,99373.34
2018-08-09T03:01:13.203Z,99363.45
2018-08-09T03:07:18.236Z,99348.02
2018-08-09T03:13:22.974Z,99355.04
2018-08-09T03:19:27.659Z,99357.47
2018-08-09T03:25:32.386Z,99355.79
2018-08-09T03:31:37.136Z,99357.54
2018-08-09T03:37:41.818Z,99362.42
2018-08-09T03:43:46.805Z,99364.26
2018-08-09T03:49:51.470Z,99370.99
2018-08-09T03:55:56.496Z,99370.63
2018-08-09T04:02:01.469Z,99374.71
2018-08-09T04:08:06.431Z,99384.44
2018-08-09T04:14:11.530Z,99385.15
2018-08-09T04:20:16.319Z,99389.38
2018-08-09T04:26:21.234Z,99391.16
2018-08-09T04:32:25.876Z,99397.21
2018-08-09T04:38:30.968Z,99401.08
2018-08-09T04:44:36.078Z,99404.56
2018-08-09T04:50:40.859Z,99392.22
2018-08-09T04:56:45.542Z,99374.70
2018-08-09T05:02:50.433Z,99383.98
2018-08-09T05:08:55.099Z,99396.52
2018-08-09T05:15:00.489Z,99393.91
2018-08-09T05:21:05.510Z,99394.27
2018-08-09T05:27:10.284Z,99397.45
2018-08-09T05:33:15.089Z,99400.81
2018-08-09T05:39:19.735Z,99391.55
2018-08-09T05:45:24.428Z,99374.81
2018-08-09T05:51:29.102Z,99389.06
2018-08-09T05:57:34.373Z,99394.88
2018-08-09T06:03:39.120Z,99394.53
2018-08-09T06:09:43.746Z,99378.66
2018-08-09T06:15:48.483Z,99381.09
2018-08-09T06:21:53.266Z,99368.09
2018-08-09T06:27:57.924Z,99361.22
2018-08-09T06:34:02.814Z,99369.20
2018-08-09T06:40:12.906Z,99361.67
2018-08-09T06:46:17.586Z,99355.17
2018-08-09T06:52:22.316Z,99338.73
2018-08-09T06:58:27.054Z,99338.80
2018-08-09T07:04:32.867Z,99346.05
2018-08-09T07:10:37.659Z,99340.16
2018-08-09T07:16:42.488Z,99341.12
2018-08-09T07:22:47.998Z,99339.11
2018-08-09T07:28:53.044Z,99329.52
2018-08-09T07:34:57.805Z,99312.20
2018-08-09T07:41:04.871Z,99308.55
2018-08-09T07:47:09.847Z,99311.81
2018-08-09T07:53:14.624Z,99304.60
2018-08-09T07:59:19.353Z,99290.42
2018-08-09T08:05:24.049Z,99275.80
2018-08-09T08:11:28.784Z,99270.82
2018-08-09T08:17:33.712Z,99261.45
2018-08-09T08:23:38.491Z,99275.73
2018-08-09T08:29:43.185Z,99259.70
2018-08-09T08:35:47.852Z,99250.20
2018-08-09T08:41:52.585Z,99239.56
2018-08-09T08:47:57.532Z,99236.61
2018-08-09T08:54:03.311Z,99214.58
2018-08-09T09:00:10.676Z,99202.56
2018-08-09T09:06:15.448Z,99185.52
2018-08-09T09:12:20.194Z,99177.87
2018-08-09T09:18:25.079Z,99181.00
2018-08-09T09:24:30.337Z,99174.56
2018-08-09T09:30:35.703Z,99165.62
2018-08-09T09:36:40.462Z,99165.72
2018-08-09T09:42:45.192Z,99166.40
2018-08-09T09:48:49.928Z,99159.11
2018-08-09T09:54:54.654Z,99152.18
2018-08-09T10:01:04.705Z,99137.92
2018-08-09T10:07:09.453Z,99127.28
2018-08-09T10:13:14.181Z,99125.11
2018-08-09T10:19:18.904Z,99114.65
2018-08-09T10:25:23.583Z,99110.69
2018-08-09T10:31:28.276Z,99093.87
2018-08-09T10:37:34.112Z,99090.30
2018-08-09T10:43:38.785Z,99075.11
2018-08-09T10:49:43.509Z,99063.44
2018-08-09T10:55:48.215Z,99040.61
2018-08-09T11:01:52.979Z,99021.52
2018-08-09T11:07:57.766Z,99016.69
2018-08-09T11:14:03.119Z,99006.14
2018-08-09T11:20:08.119Z,98980.36
2018-08-09T11:26:12.835Z,98977.67
2018-08-09T11:32:17.602Z,98967.91
2018-08-09T11:38:22.535Z,98972.06
2018-08-09T11:44:27.315Z,98945.41
2018-08-09T11:50:32.002Z,98929.14
2018-08-09T11:56:36.956Z,98904.84
2018-08-09T12:02:41.667Z,98906.58
2018-08-09T12:08:46.438Z,98899.41
2018-08-09T12:14:51.180Z,98869.95
2018-08-09T12:20:56.385Z,98870.61
2018-08-09T12:27:01.145Z,98849.94
2018-08-09T12:33:06.149Z,98860.45
2018-08-09T12:39:12.821Z,98852.05
2018-08-09T12:45:18.362Z,98836.39
2018-08-09T12:51:23.150Z,98834.23
2018-08-09T12:57:27.823Z,98819.02
2018-08-09T13:03:32.686Z,98793.44
2018-08-09T13:09:37.486Z,98777.96
2018-08-09T13:15:42.246Z,98776.86
2018-08-09T13:21:47.084Z,98754.20
2018-08-09T13:27:51.802Z,98749.97
2018-08-09T13:33:56.727Z,98743.53
2018-08-09T13:40:02.921Z,98734.93
2018-08-09T13:46:08.114Z,98718.11
2018-08-09T13:52:13.336Z,98696.89
2018-08-09T13:58:18.257Z,98668.22
2018-08-09T14:04:23.035Z,98634.78
2018-08-09T14:10:27.755Z,98629.66
2018-08-09T14:16:33.565Z,98637.06
2018-08-09T14:22:38.479Z,98635.94
2018-08-09T14:28:43.209Z,98626.05
2018-08-09T14:34:47.990Z,98651.44
2018-08-09T14:40:52.709Z,98650.58
2018-08-09T14:46:57.475Z,98638.02
2018-08-09T14:53:02.602Z,98653.64
2018-08-09T14:59:07.393Z,98681.06
2018-08-09T15:05:12.079Z,98694.52
2018-08-09T15:11:16.700Z,98651.27
2018-08-09T15:17:21.381Z,98670.48
2018-08-09T15:23:26.221Z,98638.11
2018-08-09T15:29:31.124Z,98727.11
2018-08-09T15:35:36.145Z,98807.98
2018-08-09T15:41:41.577Z,98847.30
2018-08-09T15:47:46.897Z,98826.04
2018-08-09T15:53:51.564Z,98760.98
2018-08-09T15:59:56.291Z,98843.87
2018-08-09T16:06:02.545Z,98851.45
2018-08-09T16:12:07.461Z,98906.47
2018-08-09T16:18:12.241Z,98917.21
2018-08-09T16:24:17.023Z,98898.95
2018-08-09T16:30:25.049Z,98898.73
2018-08-09T16:36:29.960Z,98967.17
2018-08-09T16:42:35.128Z,98986.19
2018-08-09T16:48:39.980Z,98938.64
2018-08-09T16:54:44.824Z,98904.20
2018-08-09T17:00:49.883Z,98888.33
2018-08-09T17:06:54.767Z,98845.83
2018-08-09T17:12:59.612Z,98796.37
2018-08-09T17:19:04.376Z,98818.05
2018-08-09T17:25:10.679Z,98811.18
2018-08-09T17:31:15.437Z,98830.69
2018-08-09T17:37:20.296Z,98799.25
2018-08-09T17:43:25.252Z,98816.70
2018-08-09T17:49:30.240Z,98806.28
2018-08-09T17:55:35.371Z,98816.66
2018-08-09T18:01:40.117Z,98817.75
2018-08-09T18:07:44.849Z,98825.46
2018-08-09T18:13:49.937Z,98831.56
2018-08-09T18:19:54.809Z,98847.91
2018-08-09T18:25:59.837Z,98854.95
2018-08-09T18:32:05.061Z,98849.17
2018-08-09T18:38:10.289Z,98860.04
2018-08-09T18:44:15.348Z,98858.28
2018-08-09T18:50:22.489Z,98873.91
2018-08-09T18:56:27.593Z,98890.89
2018-08-09T19:02:32.465Z,98894.59
2018-08-09T19:08:37.212Z,98918.58
2018-08-09T19:14:41.992Z,98919.72
2018-08-09T19:20:46.763Z,98920.17
2018-08-09T19:26:51.555Z,98916.94
2018-08-09T19:32:56.642Z,98933.83
2018-08-09T19:39:01.572Z,98930.45
2018-08-09T19:45:11.210Z,98943.36
2018-08-09T19:51:16.093Z,98945.22
2018-08-09T19:57:20.974Z,98965.74
2018-08-09T20:03:26.118Z,98962.73
2018-08-09T20:09:31.034Z,98985.66
2018-08-09T20:15:35.819Z,98990.01
2018-08-09T20:21:40.642Z,99004.64
2018-08-09T20:27:46.056Z,99014.41
2018-08-09T20:33:50.741Z,99014.20
2018-08-09T20:39:55.479Z,99029.97
2018-08-09T20:46:00.609Z,99033.28
2018-08-09T20:52:06.484Z,99041.13
2018-08-09T20:58:11.298Z,99047.69
2018-08-09T21:04:16.259Z,99027.27
2018-08-09T21:10:21.288Z,99035.17
2018-08-09T21:16:26.046Z,99030.05
2018-08-09T21:22:31.548Z,99031.36
2018-08-09T21:28:36.325Z,99042.33
2018-08-09T21:34:41.182Z,99044.81
2018-08-09T21:40:45.979Z,99043.17
2018-08-09T21:46:50.662Z,99057.93
2018-08-09T21:52:55.376Z,99051.39
2018-08-09T21:59:00.202Z,99055.20
2018-08-09T22:05:10.306Z,99061.50
2018-08-09T22:11:20.368Z,99072.66
2018-08-09T22:17:30.660Z,99076.95
2018-08-09T22:23:41.232Z,99094.75
2018-08-09T22:29:45.959Z,99095.88
2018-08-09T22:35:51.160Z,99105.12
2018-08-09T22:41:55.847Z,99105.70
2018-08-09T22:48:01.191Z,99124.23
2018-08-09T22:54:06.610Z,99128.35
2018-08-09T23:00:24.480Z,99139.80
2018-08-09T23:06:31.841Z,99153.42
2018-08-09T23:12:37.069Z,99153.44
2018-08-09T23:18:41.856Z,99150.70
2018-08-09T23:24:46.659Z,99141.72
2018-08-09T23:30:51.318Z,99152.62
2018-08-09T23:36:56.011Z,99153.98
2018-08-09T23:43:01.107Z,99157.77
2018-08-09T23:49:06.484Z,99176.86
2018-08-09T23:55:18.170Z,99198.66
